sensor_id;sensor_type;location;lat;lon;timestamp;pressure;altitude;pressure_sealevel;temperature;humidity
58843;BME280;44614;54.356;10.100;2023-07-31T00:00:11;100534.41;;;13.60;100.00
58843;BME280;44614;54.356;10.100;2023-07-31T00:02:37;100543.94;;;13.69;100.00
58843;BME280;44614;54.356;10.100;2023-07-31T00:05:03;100526.81;;;13.67;100.00
58843;BME280;44614;54.356;10.100;2023-07-31T00:07:29;100527.97;;;13.71;100.00
58843;BME280;44614;54.356;10.100;2023-07-31T00:09:54;100511.41;;;13.71;100.00
58843;BME280;44614;54.356;10.100;2023-07-31T00:12:21;100510.31;;;13.72;100.00
58843;BME280;44614;54.356;10.100;2023-07-31T00:14:47;100488.66;;;13.64;100.00
58843;BME280;44614;54.356;10.100;2023-07-31T00:17:12;100502.19;;;13.65;100.00
58843;BME280;44614;54.356;10.100;2023-07-31T00:19:38;100513.34;;;13.71;100.00
58843;BME280;44614;54.356;10.100;2023-07-31T00:22:03;100481.31;;;13.53;100.00
58843;BME280;44614;54.356;10.100;2023-07-31T00:24:29;100493.53;;;13.57;100.00
58843;BME280;44614;54.356;10.100;2023-07-31T00:26:54;100500.22;;;13.61;100.00
58843;BME280;44614;54.356;10.100;2023-07-31T00:29:20;100489.53;;;13.48;100.00
58843;BME280;44614;54.356;10.100;2023-07-31T00:31:45;100489.09;;;13.56;100.00
58843;BME280;44614;54.356;10.100;2023-07-31T00:34:11;100476.97;;;13.57;100.00
58843;BME280;44614;54.356;10.100;2023-07-31T00:36:36;100480.88;;;13.61;100.00
58843;BME280;44614;54.356;10.100;2023-07-31T00:39:02;100495.03;;;13.64;100.00
58843;BME280;44614;54.356;10.100;2023-07-31T00:41:27;100497.44;;;13.61;100.00
58843;BME280;44614;54.356;10.100;2023-07-31T00:43:52;100497.44;;;13.61;100.00
58843;BME280;44614;54.356;10.100;2023-07-31T00:46:18;100502.47;;;13.64;100.00
58843;BME280;44614;54.356;10.100;2023-07-31T00:48:44;100500.81;;;13.63;100.00
58843;BME280;44614;54.356;10.100;2023-07-31T00:51:10;100475.88;;;13.58;100.00
58843;BME280;44614;54.356;10.100;2023-07-31T00:53:36;100460.84;;;13.49;100.00
58843;BME280;44614;54.356;10.100;2023-07-31T00:56:01;100454.72;;;13.47;100.00
58843;BME280;44614;54.356;10.100;2023-07-31T00:58:27;100474.22;;;13.57;100.00
58843;BME280;44614;54.356;10.100;2023-07-31T01:00:52;100460.91;;;13.54;100.00
58843;BME280;44614;54.356;10.100;2023-07-31T01:03:19;100451.25;;;13.51;100.00
58843;BME280;44614;54.356;10.100;2023-07-31T01:06:23;100460.41;;;13.57;100.00
58843;BME280;44614;54.356;10.100;2023-07-31T01:11:31;100463.66;;;13.54;100.00
58843;BME280;44614;54.356;10.100;2023-07-31T01:13:58;100462.50;;;13.50;100.00
58843;BME280;44614;54.356;10.100;2023-07-31T01:16:25;100460.56;;;13.50;100.00
58843;BME280;44614;54.356;10.100;2023-07-31T01:18:50;100459.75;;;13.50;100.00
58843;BME280;44614;54.356;10.100;2023-07-31T01:21:30;100455.31;;;13.49;100.00
58843;BME280;44614;54.356;10.100;2023-07-31T01:24:20;100455.91;;;13.51;100.00
58843;BME280;44614;54.356;10.100;2023-07-31T01:26:51;100448.16;;;13.48;100.00
58843;BME280;44614;54.356;10.100;2023-07-31T01:32:09;100415.88;;;13.31;100.00
58843;BME280;44614;54.356;10.100;2023-07-31T01:34:36;100440.38;;;13.45;100.00
58843;BME280;44614;54.356;10.100;2023-07-31T01:37:02;100432.03;;;13.39;100.00
58843;BME280;44614;54.356;10.100;2023-07-31T01:39:28;100440.88;;;13.41;100.00
58843;BME280;44614;54.356;10.100;2023-07-31T01:41:53;100415.53;;;13.28;100.00
58843;BME280;44614;54.356;10.100;2023-07-31T01:44:20;100426.75;;;13.38;100.00
58843;BME280;44614;54.356;10.100;2023-07-31T01:46:45;100427.25;;;13.35;100.00
58843;BME280;44614;54.356;10.100;2023-07-31T01:49:10;100425.16;;;13.25;100.00
58843;BME280;44614;54.356;10.100;2023-07-31T01:51:36;100424.16;;;13.31;100.00
58843;BME280;44614;54.356;10.100;2023-07-31T01:54:02;100420.56;;;13.31;100.00
58843;BME280;44614;54.356;10.100;2023-07-31T01:56:27;100422.75;;;13.29;100.00
58843;BME280;44614;54.356;10.100;2023-07-31T01:58:53;100410.53;;;13.25;100.00
58843;BME280;44614;54.356;10.100;2023-07-31T02:01:18;100418.91;;;13.30;100.00
58843;BME280;44614;54.356;10.100;2023-07-31T02:03:44;100412.78;;;13.28;100.00
58843;BME280;44614;54.356;10.100;2023-07-31T02:06:10;100407.16;;;13.23;100.00
58843;BME280;44614;54.356;10.100;2023-07-31T02:08:35;100412.47;;;13.24;100.00
58843;BME280;44614;54.356;10.100;2023-07-31T02:11:00;100404.41;;;13.23;100.00
58843;BME280;44614;54.356;10.100;2023-07-31T02:13:26;100399.97;;;13.22;100.00
58843;BME280;44614;54.356;10.100;2023-07-31T02:15:51;100394.25;;;13.23;100.00
58843;BME280;44614;54.356;10.100;2023-07-31T02:18:17;100393.19;;;13.24;100.00
58843;BME280;44614;54.356;10.100;2023-07-31T02:20:43;100386.78;;;13.24;100.00
58843;BME280;44614;54.356;10.100;2023-07-31T02:23:08;100394.47;;;13.22;100.00
58843;BME280;44614;54.356;10.100;2023-07-31T02:25:34;100383.66;;;13.20;100.00
58843;BME280;44614;54.356;10.100;2023-07-31T02:27:59;100345.94;;;12.87;100.00
58843;BME280;44614;54.356;10.100;2023-07-31T02:30:24;100374.56;;;13.20;100.00
58843;BME280;44614;54.356;10.100;2023-07-31T02:32:50;100393.63;;;13.21;100.00
58843;BME280;44614;54.356;10.100;2023-07-31T02:35:15;100364.91;;;13.17;100.00
58843;BME280;44614;54.356;10.100;2023-07-31T02:37:42;100362.63;;;13.14;100.00
58843;BME280;44614;54.356;10.100;2023-07-31T02:40:08;100370.25;;;13.24;100.00
58843;BME280;44614;54.356;10.100;2023-07-31T02:42:33;100367.88;;;13.15;100.00
58843;BME280;44614;54.356;10.100;2023-07-31T02:44:59;100371.59;;;13.21;100.00
58843;BME280;44614;54.356;10.100;2023-07-31T02:47:24;100375.78;;;13.24;100.00
58843;BME280;44614;54.356;10.100;2023-07-31T02:49:50;100379.38;;;13.24;100.00
58843;BME280;44614;54.356;10.100;2023-07-31T02:52:16;100382.72;;;13.26;100.00
58843;BME280;44614;54.356;10.100;2023-07-31T02:54:41;100370.41;;;13.17;100.00
58843;BME280;44614;54.356;10.100;2023-07-31T02:57:07;100368.09;;;13.26;100.00
58843;BME280;44614;54.356;10.100;2023-07-31T02:59:32;100377.47;;;13.25;100.00
58843;BME280;44614;54.356;10.100;2023-07-31T03:01:58;100361.88;;;13.18;100.00
58843;BME280;44614;54.356;10.100;2023-07-31T03:04:24;100372.28;;;13.28;100.00
58843;BME280;44614;54.356;10.100;2023-07-31T03:06:50;100354.94;;;13.16;100.00
58843;BME280;44614;54.356;10.100;2023-07-31T03:09:15;100364.38;;;13.20;100.00
58843;BME280;44614;54.356;10.100;2023-07-31T03:11:41;100371.59;;;13.21;100.00
58843;BME280;44614;54.356;10.100;2023-07-31T03:14:06;100348.78;;;13.09;100.00
58843;BME280;44614;54.356;10.100;2023-07-31T03:16:32;100364.97;;;13.22;100.00
58843;BME280;44614;54.356;10.100;2023-07-31T03:18:57;100370.91;;;13.31;100.00
58843;BME280;44614;54.356;10.100;2023-07-31T03:21:23;100371.25;;;13.34;100.00
58843;BME280;44614;54.356;10.100;2023-07-31T03:23:48;100368.25;;;13.36;100.00
58843;BME280;44614;54.356;10.100;2023-07-31T03:26:13;100356.63;;;13.34;100.00
58843;BME280;44614;54.356;10.100;2023-07-31T03:28:39;100355.53;;;13.35;100.00
58843;BME280;44614;54.356;10.100;2023-07-31T03:31:04;100347.84;;;13.37;100.00
58843;BME280;44614;54.356;10.100;2023-07-31T03:33:30;100339.81;;;13.35;100.00
58843;BME280;44614;54.356;10.100;2023-07-31T03:35:55;100341.84;;;13.40;100.00
58843;BME280;44614;54.356;10.100;2023-07-31T03:38:21;100353.00;;;13.50;100.00
58843;BME280;44614;54.356;10.100;2023-07-31T03:40:46;100336.13;;;13.47;100.00
58843;BME280;44614;54.356;10.100;2023-07-31T03:43:12;100345.88;;;13.54;100.00
58843;BME280;44614;54.356;10.100;2023-07-31T03:45:38;100334.53;;;13.51;100.00
58843;BME280;44614;54.356;10.100;2023-07-31T03:48:04;100349.81;;;13.58;100.00
58843;BME280;44614;54.356;10.100;2023-07-31T03:50:29;100348.47;;;13.61;100.00
58843;BME280;44614;54.356;10.100;2023-07-31T03:52:55;100346.28;;;13.63;100.00
58843;BME280;44614;54.356;10.100;2023-07-31T03:55:20;100351.31;;;13.66;100.00
58843;BME280;44614;54.356;10.100;2023-07-31T03:57:47;100345.25;;;13.69;100.00
58843;BME280;44614;54.356;10.100;2023-07-31T04:00:12;100326.97;;;13.63;100.00
58843;BME280;44614;54.356;10.100;2023-07-31T04:02:38;100332.88;;;13.72;100.00
58843;BME280;44614;54.356;10.100;2023-07-31T04:05:03;100338.72;;;13.75;100.00
58843;BME280;44614;54.356;10.100;2023-07-31T04:07:29;100332.09;;;13.76;100.00
58843;BME280;44614;54.356;10.100;2023-07-31T04:09:55;100329.94;;;13.78;100.00
58843;BME280;44614;54.356;10.100;2023-07-31T04:12:20;100341.63;;;13.85;100.00
58843;BME280;44614;54.356;10.100;2023-07-31T04:14:46;100337.16;;;13.84;100.00
58843;BME280;44614;54.356;10.100;2023-07-31T04:17:11;100321.97;;;13.82;100.00
58843;BME280;44614;54.356;10.100;2023-07-31T04:19:37;100330.31;;;13.87;100.00
58843;BME280;44614;54.356;10.100;2023-07-31T04:22:02;100319.00;;;13.88;100.00
58843;BME280;44614;54.356;10.100;2023-07-31T04:24:27;100337.31;;;13.95;100.00
58843;BME280;44614;54.356;10.100;2023-07-31T04:26:53;100331.28;;;13.98;100.00
58843;BME280;44614;54.356;10.100;2023-07-31T04:29:19;100322.16;;;13.97;100.00
58843;BME280;44614;54.356;10.100;2023-07-31T04:31:45;100332.97;;;14.04;100.00
58843;BME280;44614;54.356;10.100;2023-07-31T04:34:11;100310.22;;;13.92;100.00
58843;BME280;44614;54.356;10.100;2023-07-31T04:36:37;100303.91;;;13.96;100.00
58843;BME280;44614;54.356;10.100;2023-07-31T04:39:02;100306.47;;;14.03;100.00
58843;BME280;44614;54.356;10.100;2023-07-31T04:41:28;100312.81;;;14.03;100.00
58843;BME280;44614;54.356;10.100;2023-07-31T04:43:53;100295.59;;;13.91;100.00
58843;BME280;44614;54.356;10.100;2023-07-31T04:46:18;100320.91;;;14.10;100.00
58843;BME280;44614;54.356;10.100;2023-07-31T04:48:44;100309.81;;;14.05;100.00
58843;BME280;44614;54.356;10.100;2023-07-31T04:51:09;100309.81;;;14.05;100.00
58843;BME280;44614;54.356;10.100;2023-07-31T04:53:35;100307.06;;;14.05;100.00
58843;BME280;44614;54.356;10.100;2023-07-31T04:56:01;100292.53;;;13.93;100.00
58843;BME280;44614;54.356;10.100;2023-07-31T04:58:26;100282.56;;;13.86;100.00
58843;BME280;44614;54.356;10.100;2023-07-31T05:00:52;100304.50;;;13.98;100.00
58843;BME280;44614;54.356;10.100;2023-07-31T05:03:17;100297.31;;;13.97;100.00
58843;BME280;44614;54.356;10.100;2023-07-31T05:05:43;100302.56;;;13.99;100.00
58843;BME280;44614;54.356;10.100;2023-07-31T05:08:08;100308.72;;;14.06;100.00
58843;BME280;44614;54.356;10.100;2023-07-31T05:10:34;100295.94;;;14.00;100.00
58843;BME280;44614;54.356;10.100;2023-07-31T05:12:59;100300.94;;;14.03;100.00
58843;BME280;44614;54.356;10.100;2023-07-31T05:15:24;100301.00;;;14.08;100.00
58843;BME280;44614;54.356;10.100;2023-07-31T05:17:50;100300.50;;;14.11;100.00
58843;BME280;44614;54.356;10.100;2023-07-31T05:20:15;100300.25;;;14.12;100.00
58843;BME280;44614;54.356;10.100;2023-07-31T05:22:41;100274.41;;;13.97;100.00
58843;BME280;44614;54.356;10.100;2023-07-31T05:25:06;100302.22;;;14.17;100.00
58843;BME280;44614;54.356;10.100;2023-07-31T05:27:32;100298.13;;;14.20;100.00
58843;BME280;44614;54.356;10.100;2023-07-31T05:29:57;100280.44;;;14.21;100.00
58843;BME280;44614;54.356;10.100;2023-07-31T05:32:23;100214.66;;;13.85;100.00
58843;BME280;44614;54.356;10.100;2023-07-31T05:34:51;100235.31;;;14.10;100.00
58843;BME280;44614;54.356;10.100;2023-07-31T05:37:17;100268.13;;;14.33;100.00
58843;BME280;44614;54.356;10.100;2023-07-31T05:39:42;100265.94;;;14.35;100.00
58843;BME280;44614;54.356;10.100;2023-07-31T05:42:08;100276.50;;;14.38;100.00
58843;BME280;44614;54.356;10.100;2023-07-31T05:44:33;100275.94;;;14.42;100.00
58843;BME280;44614;54.356;10.100;2023-07-31T05:46:59;100277.63;;;14.43;100.00
58843;BME280;44614;54.356;10.100;2023-07-31T05:49:24;100245.69;;;14.25;100.00
58843;BME280;44614;54.356;10.100;2023-07-31T05:51:50;100266.03;;;14.46;100.00
58843;BME280;44614;54.356;10.100;2023-07-31T05:54:15;100259.97;;;14.49;100.00
58843;BME280;44614;54.356;10.100;2023-07-31T05:56:40;100251.06;;;14.42;100.00
58843;BME280;44614;54.356;10.100;2023-07-31T05:59:06;100243.69;;;14.47;100.00
58843;BME280;44614;54.356;10.100;2023-07-31T06:01:31;100237.97;;;14.54;100.00
58843;BME280;44614;54.356;10.100;2023-07-31T06:03:57;100217.41;;;14.45;100.00
58843;BME280;44614;54.356;10.100;2023-07-31T06:06:22;100240.28;;;14.67;100.00
58843;BME280;44614;54.356;10.100;2023-07-31T06:08:48;100244.44;;;14.70;100.00
58843;BME280;44614;54.356;10.100;2023-07-31T06:11:13;100239.78;;;14.75;100.00
58843;BME280;44614;54.356;10.100;2023-07-31T06:13:39;100249.16;;;14.74;100.00
58843;BME280;44614;54.356;10.100;2023-07-31T06:16:04;100236.16;;;14.70;100.00
58843;BME280;44614;54.356;10.100;2023-07-31T06:18:34;100248.66;;;14.77;100.00
58843;BME280;44614;54.356;10.100;2023-07-31T06:20:59;100239.25;;;14.78;100.00
58843;BME280;44614;54.356;10.100;2023-07-31T06:23:25;100235.69;;;14.83;100.00
58843;BME280;44614;54.356;10.100;2023-07-31T06:25:50;100232.13;;;14.87;100.00
58843;BME280;44614;54.356;10.100;2023-07-31T06:28:16;100236.00;;;14.92;100.00
58843;BME280;44614;54.356;10.100;2023-07-31T06:30:41;100233.53;;;14.95;100.00
58843;BME280;44614;54.356;10.100;2023-07-31T06:33:06;100237.44;;;14.99;100.00
58843;BME280;44614;54.356;10.100;2023-07-31T06:35:32;100227.78;;;15.02;100.00
58843;BME280;44614;54.356;10.100;2023-07-31T06:37:57;100220.00;;;14.94;100.00
58843;BME280;44614;54.356;10.100;2023-07-31T06:40:23;100235.84;;;15.08;100.00
58843;BME280;44614;54.356;10.100;2023-07-31T06:42:48;100218.94;;;15.00;100.00
58843;BME280;44614;54.356;10.100;2023-07-31T06:45:13;100232.78;;;15.05;100.00
58843;BME280;44614;54.356;10.100;2023-07-31T06:47:39;100241.38;;;15.08;100.00
58843;BME280;44614;54.356;10.100;2023-07-31T06:50:05;100240.28;;;15.09;100.00
58843;BME280;44614;54.356;10.100;2023-07-31T06:52:30;100246.09;;;15.13;100.00
58843;BME280;44614;54.356;10.100;2023-07-31T06:55:21;100243.06;;;15.15;100.00
58843;BME280;44614;54.356;10.100;2023-07-31T06:57:51;100243.91;;;15.15;100.00
58843;BME280;44614;54.356;10.100;2023-07-31T07:00:18;100245.28;;;15.13;100.00
58843;BME280;44614;54.356;10.100;2023-07-31T07:02:44;100231.38;;;15.02;100.00
58843;BME280;44614;54.356;10.100;2023-07-31T07:05:12;100218.38;;;14.98;100.00
58843;BME280;44614;54.356;10.100;2023-07-31T07:07:38;100230.88;;;15.10;100.00
58843;BME280;44614;54.356;10.100;2023-07-31T07:10:04;100214.56;;;15.09;100.00
58843;BME280;44614;54.356;10.100;2023-07-31T07:12:31;100229.53;;;15.18;100.00
58843;BME280;44614;54.356;10.100;2023-07-31T07:14:56;100227.88;;;15.22;100.00
58843;BME280;44614;54.356;10.100;2023-07-31T07:17:26;100228.75;;;15.28;100.00
58843;BME280;44614;54.356;10.100;2023-07-31T07:19:52;100247.88;;;15.34;100.00
58843;BME280;44614;54.356;10.100;2023-07-31T07:22:18;100235.13;;;15.33;100.00
58843;BME280;44614;54.356;10.100;2023-07-31T07:24:43;100227.41;;;15.30;100.00
58843;BME280;44614;54.356;10.100;2023-07-31T07:27:09;100241.84;;;15.43;100.00
58843;BME280;44614;54.356;10.100;2023-07-31T07:29:34;100240.75;;;15.49;100.00
58843;BME280;44614;54.356;10.100;2023-07-31T07:32:00;100233.03;;;15.56;100.00
58843;BME280;44614;54.356;10.100;2023-07-31T07:34:26;100234.72;;;15.62;100.00
58843;BME280;44614;54.356;10.100;2023-07-31T07:36:52;100234.50;;;15.69;100.00
58843;BME280;44614;54.356;10.100;2023-07-31T07:39:18;100227.25;;;15.57;100.00
58843;BME280;44614;54.356;10.100;2023-07-31T07:41:43;100231.66;;;15.64;100.00
58843;BME280;44614;54.356;10.100;2023-07-31T07:44:09;100235.34;;;15.69;100.00
58843;BME280;44614;54.356;10.100;2023-07-31T07:46:34;100233.94;;;15.72;100.00
58843;BME280;44614;54.356;10.100;2023-07-31T07:49:00;100226.50;;;15.77;100.00
58843;BME280;44614;54.356;10.100;2023-07-31T07:51:25;100217.91;;;15.79;100.00
58843;BME280;44614;54.356;10.100;2023-07-31T07:53:51;100218.72;;;15.79;100.00
58843;BME280;44614;54.356;10.100;2023-07-31T07:56:16;100220.41;;;15.80;100.00
58843;BME280;44614;54.356;10.100;2023-07-31T07:58:42;100214.31;;;15.78;100.00
58843;BME280;44614;54.356;10.100;2023-07-31T08:01:07;100214.59;;;15.82;100.00
58843;BME280;44614;54.356;10.100;2023-07-31T08:03:33;100220.13;;;15.77;100.00
58843;BME280;44614;54.356;10.100;2023-07-31T08:05:59;100219.00;;;15.73;100.00
58843;BME280;44614;54.356;10.100;2023-07-31T08:08:25;100215.72;;;15.76;100.00
58843;BME280;44614;54.356;10.100;2023-07-31T08:10:50;100196.50;;;15.59;100.00
58843;BME280;44614;54.356;10.100;2023-07-31T08:13:16;100208.75;;;15.68;100.00
58843;BME280;44614;54.356;10.100;2023-07-31T08:15:41;100207.66;;;15.79;100.00
58843;BME280;44614;54.356;10.100;2023-07-31T08:18:08;100209.06;;;15.82;100.00
58843;BME280;44614;54.356;10.100;2023-07-31T08:20:34;100205.19;;;15.83;100.00
58843;BME280;44614;54.356;10.100;2023-07-31T08:22:59;100204.38;;;15.88;100.00
58843;BME280;44614;54.356;10.100;2023-07-31T08:25:25;100211.03;;;15.92;100.00
58843;BME280;44614;54.356;10.100;2023-07-31T08:27:50;100181.09;;;15.73;100.00
58843;BME280;44614;54.356;10.100;2023-07-31T08:30:18;100202.72;;;15.92;100.00
58843;BME280;44614;54.356;10.100;2023-07-31T08:32:43;100200.25;;;15.95;100.00
58843;BME280;44614;54.356;10.100;2023-07-31T08:35:09;100223.75;;;15.98;100.00
58843;BME280;44614;54.356;10.100;2023-07-31T08:37:34;100214.91;;;15.96;100.00
58843;BME280;44614;54.356;10.100;2023-07-31T08:40:00;100192.19;;;15.83;100.00
58843;BME280;44614;54.356;10.100;2023-07-31T08:42:26;100213.81;;;15.97;100.00
58843;BME280;44614;54.356;10.100;2023-07-31T08:44:52;100202.44;;;15.98;100.00
58843;BME280;44614;54.356;10.100;2023-07-31T08:47:19;100188.03;;;15.86;100.00
58843;BME280;44614;54.356;10.100;2023-07-31T08:49:46;100212.44;;;16.09;100.00
58843;BME280;44614;54.356;10.100;2023-07-31T08:52:11;100210.22;;;16.12;100.00
58843;BME280;44614;54.356;10.100;2023-07-31T08:54:37;100211.63;;;16.14;100.00
58843;BME280;44614;54.356;10.100;2023-07-31T08:57:05;100220.47;;;16.16;100.00
58843;BME280;44614;54.356;10.100;2023-07-31T08:59:32;100222.16;;;16.22;100.00
58843;BME280;44614;54.356;10.100;2023-07-31T09:02:05;100214.38;;;16.24;100.00
58843;BME280;44614;54.356;10.100;2023-07-31T09:04:31;100214.94;;;16.31;100.00
58843;BME280;44614;54.356;10.100;2023-07-31T09:07:00;100204.16;;;16.15;100.00
58843;BME280;44614;54.356;10.100;2023-07-31T09:09:26;100213.28;;;16.30;100.00
58843;BME280;44614;54.356;10.100;2023-07-31T09:11:52;100212.19;;;16.31;100.00
58843;BME280;44614;54.356;10.100;2023-07-31T09:14:18;100208.56;;;16.31;100.00
58843;BME280;44614;54.356;10.100;2023-07-31T09:16:58;100224.91;;;16.27;100.00
58843;BME280;44614;54.356;10.100;2023-07-31T09:19:35;100216.03;;;16.25;100.00
58843;BME280;44614;54.356;10.100;2023-07-31T09:22:03;100213.56;;;16.24;100.00
58843;BME280;44614;54.356;10.100;2023-07-31T09:24:31;100209.38;;;16.21;100.00
58843;BME280;44614;54.356;10.100;2023-07-31T09:26:58;100198.06;;;16.23;100.00
58843;BME280;44614;54.356;10.100;2023-07-31T09:29:26;100204.16;;;16.30;100.00
58843;BME280;44614;54.356;10.100;2023-07-31T09:31:52;100193.91;;;16.30;100.00
58843;BME280;44614;54.356;10.100;2023-07-31T09:34:18;100193.34;;;16.33;100.00
58843;BME280;44614;54.356;10.100;2023-07-31T09:36:49;100190.84;;;16.37;100.00
58843;BME280;44614;54.356;10.100;2023-07-31T09:39:16;100184.75;;;16.35;100.00
58843;BME280;44614;54.356;10.100;2023-07-31T09:41:44;100179.22;;;16.35;100.00
58843;BME280;44614;54.356;10.100;2023-07-31T09:44:10;100181.72;;;16.42;100.00
58843;BME280;44614;54.356;10.100;2023-07-31T09:46:37;100180.56;;;16.48;100.00
58843;BME280;44614;54.356;10.100;2023-07-31T09:49:13;100184.19;;;16.43;100.00
58843;BME280;44614;54.356;10.100;2023-07-31T09:51:40;100174.50;;;16.36;100.00
58843;BME280;44614;54.356;10.100;2023-07-31T09:54:10;100182.78;;;16.41;100.00
58843;BME280;44614;54.356;10.100;2023-07-31T09:56:46;100176.44;;;16.45;100.00
58843;BME280;44614;54.356;10.100;2023-07-31T09:59:17;100188.34;;;16.51;100.00
58843;BME280;44614;54.356;10.100;2023-07-31T10:01:44;100182.53;;;16.52;100.00
58843;BME280;44614;54.356;10.100;2023-07-31T10:04:12;100190.53;;;16.59;100.00
58843;BME280;44614;54.356;10.100;2023-07-31T10:06:40;100185.56;;;16.61;100.00
58843;BME280;44614;54.356;10.100;2023-07-31T10:09:07;100190.28;;;16.66;100.00
58843;BME280;44614;54.356;10.100;2023-07-31T10:11:53;100182.22;;;16.69;100.00
58843;BME280;44614;54.356;10.100;2023-07-31T10:14:21;100181.13;;;16.65;100.00
58843;BME280;44614;54.356;10.100;2023-07-31T10:16:47;100153.13;;;16.51;100.00
58843;BME280;44614;54.356;10.100;2023-07-31T10:19:12;100182.50;;;16.68;100.00
58843;BME280;44614;54.356;10.100;2023-07-31T10:21:38;100189.41;;;16.70;100.00
58843;BME280;44614;54.356;10.100;2023-07-31T10:24:04;100162.56;;;16.50;100.00
58843;BME280;44614;54.356;10.100;2023-07-31T10:26:34;100187.47;;;16.71;100.00
58843;BME280;44614;54.356;10.100;2023-07-31T10:29:00;100188.34;;;16.76;100.00
58843;BME280;44614;54.356;10.100;2023-07-31T10:31:28;100186.09;;;16.78;100.00
58843;BME280;44614;54.356;10.100;2023-07-31T10:33:54;100187.78;;;16.74;100.00
58843;BME280;44614;54.356;10.100;2023-07-31T10:36:21;100199.13;;;16.73;100.00
58843;BME280;44614;54.356;10.100;2023-07-31T10:38:49;100193.91;;;16.76;100.00
58843;BME280;44614;54.356;10.100;2023-07-31T10:41:16;100176.97;;;16.68;100.00
58843;BME280;44614;54.356;10.100;2023-07-31T10:43:41;100184.44;;;16.83;100.00
58843;BME280;44614;54.356;10.100;2023-07-31T10:46:08;100173.34;;;16.88;100.00
58843;BME280;44614;54.356;10.100;2023-07-31T10:48:35;100148.16;;;16.64;100.00
58843;BME280;44614;54.356;10.100;2023-07-31T10:51:09;100171.13;;;16.85;100.00
58843;BME280;44614;54.356;10.100;2023-07-31T10:53:35;100168.94;;;16.87;100.00
58843;BME280;44614;54.356;10.100;2023-07-31T10:56:09;100162.78;;;16.90;100.00
58843;BME280;44614;54.356;10.100;2023-07-31T10:58:37;100148.97;;;16.79;100.00
58843;BME280;44614;54.356;10.100;2023-07-31T11:01:04;100158.91;;;16.96;100.00
58843;BME280;44614;54.356;10.100;2023-07-31T11:03:47;100157.53;;;16.98;100.00
58843;BME280;44614;54.356;10.100;2023-07-31T11:06:15;100154.72;;;17.03;100.00
58843;BME280;44614;54.356;10.100;2023-07-31T11:08:45;100146.09;;;17.05;100.00
58843;BME280;44614;54.356;10.100;2023-07-31T11:11:16;100148.84;;;17.15;100.00
58843;BME280;44614;54.356;10.100;2023-07-31T11:16:14;100122.50;;;17.18;100.00
58843;BME280;44614;54.356;10.100;2023-07-31T11:18:43;100144.06;;;17.36;100.00
58843;BME280;44614;54.356;10.100;2023-07-31T11:21:22;100152.59;;;17.40;100.00
58843;BME280;44614;54.356;10.100;2023-07-31T11:23:53;100142.09;;;17.37;100.00
58843;BME280;44614;54.356;10.100;2023-07-31T11:26:19;100157.88;;;17.41;100.00
58843;BME280;44614;54.356;10.100;2023-07-31T11:28:49;100159.19;;;17.54;100.00
58843;BME280;44614;54.356;10.100;2023-07-31T11:31:15;100152.28;;;17.51;100.00
58843;BME280;44614;54.356;10.100;2023-07-31T11:33:40;100145.34;;;17.49;100.00
58843;BME280;44614;54.356;10.100;2023-07-31T11:36:06;100130.13;;;17.41;100.00
58843;BME280;44614;54.356;10.100;2023-07-31T11:38:32;100125.44;;;17.37;100.00
58843;BME280;44614;54.356;10.100;2023-07-31T11:41:03;100117.66;;;17.44;100.00
58843;BME280;44614;54.356;10.100;2023-07-31T11:43:30;100108.44;;;17.48;100.00
58843;BME280;44614;54.356;10.100;2023-07-31T11:45:57;100102.84;;;17.53;100.00
58843;BME280;44614;54.356;10.100;2023-07-31T11:48:27;100099.81;;;17.50;100.00
58843;BME280;44614;54.356;10.100;2023-07-31T11:51:04;100118.38;;;17.54;100.00
58843;BME280;44614;54.356;10.100;2023-07-31T11:53:35;100124.50;;;17.57;100.00
58843;BME280;44614;54.356;10.100;2023-07-31T11:56:02;100126.47;;;17.51;100.00
58843;BME280;44614;54.356;10.100;2023-07-31T11:58:34;100126.44;;;17.56;100.00
58843;BME280;44614;54.356;10.100;2023-07-31T12:01:00;100122.59;;;17.52;100.00
58843;BME280;44614;54.356;10.100;2023-07-31T12:03:26;100112.88;;;17.49;100.00
58843;BME280;44614;54.356;10.100;2023-07-31T12:05:54;100102.59;;;17.50;100.00
58843;BME280;44614;54.356;10.100;2023-07-31T12:08:21;100112.06;;;17.49;100.00
58843;BME280;44614;54.356;10.100;2023-07-31T12:10:46;100118.78;;;17.38;100.00
58843;BME280;44614;54.356;10.100;2023-07-31T12:13:23;100108.88;;;17.21;100.00
58843;BME280;44614;54.356;10.100;2023-07-31T12:15:48;100116.13;;;17.17;100.00
58843;BME280;44614;54.356;10.100;2023-07-31T12:18:16;100103.41;;;17.06;100.00
58843;BME280;44614;54.356;10.100;2023-07-31T12:20:48;100107.78;;;17.17;100.00
58843;BME280;44614;54.356;10.100;2023-07-31T12:23:17;100115.59;;;17.10;100.00
58843;BME280;44614;54.356;10.100;2023-07-31T12:25:43;100110.59;;;17.07;100.00
58843;BME280;44614;54.356;10.100;2023-07-31T12:28:09;100112.84;;;17.00;100.00
58843;BME280;44614;54.356;10.100;2023-07-31T12:30:38;100107.84;;;16.97;100.00
58843;BME280;44614;54.356;10.100;2023-07-31T12:33:12;100101.19;;;16.98;100.00
58843;BME280;44614;54.356;10.100;2023-07-31T12:35:41;100105.91;;;16.97;100.00